Time;durP1;ratioP1;P1;durP2;ratioP2;P2;SDS_P1;SDS_P2;PMS_P1;PMS_P2;Temp;Humidity;BMP_temperature;BMP_pressure;BME280_temperature;BME280_humidity;BME280_pressure;Samples;Min_cycle;Max_cycle;Signal;HPM_P1;HPM_P2
2023/02/15 00:02:01;;;;;;;8.15;4.90;;;24.70;81.80;;;;;;1916367;74;21111;-83
2023/02/15 00:04:47;;;;;;;9.83;5.60;;;24.70;81.90;;;;;;1912572;74;21112;-84
2023/02/15 00:07:19;;;;;;;8.83;4.97;;;24.70;81.90;;;;;;1898940;74;21766;-84
2023/02/15 00:09:50;;;;;;;9.03;4.97;;;24.60;81.80;;;;;;1912371;74;21182;-84
2023/02/15 00:12:21;;;;;;;8.03;5.92;;;24.60;82.00;;;;;;1910828;74;21116;-83
2023/02/15 00:14:52;;;;;;;8.03;5.75;;;24.60;82.10;;;;;;1906034;74;21092;-84
2023/02/15 00:17:23;;;;;;;8.80;5.50;;;24.60;82.00;;;;;;1912321;74;21193;-84
2023/02/15 00:19:53;;;;;;;9.40;5.12;;;24.60;81.90;;;;;;1904125;74;21225;-85
2023/02/15 00:22:24;;;;;;;8.53;6.53;;;24.60;81.90;;;;;;1913839;73;21127;-85
2023/02/15 00:24:55;;;;;;;7.78;5.95;;;24.60;82.00;;;;;;1896530;74;21096;-83
2023/02/15 00:27:25;;;;;;;7.03;5.28;;;24.60;82.00;;;;;;1912506;74;21131;-84
2023/02/15 00:29:56;;;;;;;8.38;5.33;;;24.70;81.90;;;;;;1898338;74;21757;-84
2023/02/15 00:32:27;;;;;;;8.03;5.28;;;24.60;81.40;;;;;;1925950;74;21143;-85
2023/02/15 00:34:58;;;;;;;6.90;5.45;;;24.70;81.30;;;;;;1900764;74;21116;-84
2023/02/15 00:37:28;;;;;;;9.95;5.83;;;24.60;81.30;;;;;;1912668;74;21250;-86
2023/02/15 00:39:59;;;;;;;8.35;5.00;;;24.60;81.40;;;;;;1893873;74;21140;-85
2023/02/15 00:42:30;;;;;;;8.93;5.28;;;24.60;81.30;;;;;;1915034;73;21115;-84
2023/02/15 00:45:01;;;;;;;10.60;5.60;;;24.60;81.30;;;;;;1908140;74;21116;-84
2023/02/15 00:47:32;;;;;;;8.88;6.00;;;24.60;81.50;;;;;;1904106;74;21127;-84
2023/02/15 00:50:07;;;;;;;7.67;4.90;;;24.80;91.30;;;;;;1905823;74;21169;-85
2023/02/15 00:52:36;;;;;;;12.63;5.50;;;25.30;89.70;;;;;;1898410;74;21125;-84
2023/02/15 00:55:08;;;;;;;10.95;5.55;;;24.80;84.70;;;;;;1896175;74;21123;-81
2023/02/15 00:57:38;;;;;;;13.58;5.60;;;24.60;81.30;;;;;;1894313;74;21660;-75
2023/02/15 01:00:11;;;;;;;11.55;6.17;;;24.60;81.30;;;;;;1906108;74;21211;-74
2023/02/15 01:02:42;;;;;;;8.98;5.33;;;24.60;81.30;;;;;;1908349;74;21116;-76
2023/02/15 01:05:13;;;;;;;7.17;5.62;;;24.60;81.20;;;;;;1907552;74;21166;-75
2023/02/15 01:07:44;;;;;;;9.85;6.10;;;24.60;81.40;;;;;;1894358;74;21164;-74
2023/02/15 01:10:16;;;;;;;8.78;4.78;;;24.60;81.50;;;;;;1913164;74;22095;-74
2023/02/15 01:12:47;;;;;;;7.90;5.12;;;24.60;81.20;;;;;;1909396;74;21131;-75
2023/02/15 01:15:18;;;;;;;10.28;5.22;;;24.60;81.00;;;;;;1908489;74;21476;-74
2023/02/15 01:17:55;;;;;;;8.60;5.55;;;24.70;80.80;;;;;;1899290;74;21175;-74
2023/02/15 01:20:25;;;;;;;9.08;5.35;;;24.60;80.60;;;;;;1907436;74;21108;-75
2023/02/15 01:22:57;;;;;;;7.72;5.30;;;24.70;80.80;;;;;;1906518;74;21115;-73
2023/02/15 01:25:29;;;;;;;7.20;4.92;;;24.70;80.40;;;;;;1905793;74;21242;-74
2023/02/15 01:28:01;;;;;;;7.08;4.83;;;24.80;80.10;;;;;;1897198;74;21705;-73
2023/02/15 01:30:32;;;;;;;7.15;5.17;;;24.80;79.50;;;;;;1901631;74;21195;-76
2023/02/15 01:33:04;;;;;;;11.38;5.83;;;24.80;79.40;;;;;;1893798;75;21438;-74
2023/02/15 01:35:38;;;;;;;7.65;5.28;;;24.80;79.50;;;;;;1890328;75;21264;-75
2023/02/15 01:38:09;;;;;;;8.38;5.53;;;24.80;79.70;;;;;;1898625;75;21270;-76
2023/02/15 01:40:40;;;;;;;6.87;5.17;;;24.80;79.30;;;;;;1894518;75;21181;-76
2023/02/15 01:43:13;;;;;;;8.48;5.58;;;24.90;79.20;;;;;;1896701;75;21157;-76
2023/02/15 01:45:46;;;;;;;8.55;5.45;;;24.90;78.80;;;;;;1893434;75;21112;-74
2023/02/15 01:48:27;;;;;;;8.30;5.28;;;25.00;79.00;;;;;;1891095;75;21143;-76
2023/02/15 01:51:02;;;;;;;10.10;6.42;;;25.00;78.70;;;;;;1896051;75;21108;-73
2023/02/15 01:53:38;;;;;;;6.28;4.90;;;25.00;78.90;;;;;;1891043;75;21104;-76
2023/02/15 01:56:14;;;;;;;9.75;4.85;;;25.10;78.50;;;;;;1895996;75;21412;-73
2023/02/15 01:58:52;;;;;;;9.73;4.80;;;25.10;78.20;;;;;;1896962;75;21189;-73
2023/02/15 02:01:21;;;;;;;7.28;4.90;;;25.10;77.50;;;;;;1889131;75;21199;-73
2023/02/15 02:04:03;;;;;;;6.92;4.83;;;25.10;77.60;;;;;;1899051;74;21196;-75
2023/02/15 02:06:39;;;;;;;7.92;5.40;;;25.20;77.30;;;;;;1894581;75;21998;-74
2023/02/15 02:09:12;;;;;;;8.88;5.20;;;25.20;77.00;;;;;;1895936;75;21208;-74
2023/02/15 02:11:44;;;;;;;8.23;4.78;;;25.30;76.90;;;;;;1897546;75;21898;-74
2023/02/15 02:14:16;;;;;;;9.48;5.17;;;25.30;76.50;;;;;;1896719;74;21114;-75
2023/02/15 02:16:53;;;;;;;8.40;5.25;;;25.40;76.60;;;;;;1896140;75;21877;-74
2023/02/15 02:19:55;;;;;;;6.95;5.08;;;25.40;76.50;;;;;;1897067;75;21586;-75
2023/02/15 02:22:34;;;;;;;18.67;5.00;;;25.40;76.30;;;;;;1897299;75;21116;-74
2023/02/15 02:25:08;;;;;;;12.15;4.80;;;25.50;75.80;;;;;;1835293;77;21124;-74
2023/02/15 02:27:47;;;;;;;7.45;4.85;;;25.60;75.80;;;;;;1895380;75;21586;-74
2023/02/15 02:30:33;;;;;;;6.10;4.33;;;25.60;75.30;;;;;;1897303;75;21168;-74
2023/02/15 02:33:23;;;;;;;8.13;4.83;;;25.60;75.00;;;;;;1893459;75;21114;-74
2023/02/15 02:36:03;;;;;;;11.93;5.47;;;25.60;75.30;;;;;;1885604;75;21957;-75
2023/02/15 02:38:48;;;;;;;6.65;4.58;;;25.60;75.10;;;;;;1905122;75;21194;-73
2023/02/15 02:41:24;;;;;;;6.35;4.65;;;25.60;75.50;;;;;;1896220;75;22017;-75
2023/02/15 02:44:15;;;;;;;7.92;5.08;;;25.50;75.30;;;;;;1874562;75;21230;-73
2023/02/15 02:46:50;;;;;;;8.75;5.03;;;25.50;75.60;;;;;;1882053;76;21190;-73
2023/02/15 02:49:35;;;;;;;7.65;4.83;;;25.50;76.00;;;;;;1884446;74;21135;-74
2023/02/15 02:52:09;;;;;;;7.22;4.47;;;25.50;75.50;;;;;;1894568;75;21116;-74
2023/02/15 02:54:40;;;;;;;6.17;4.08;;;25.40;75.40;;;;;;1887928;73;21112;-73
2023/02/15 02:57:11;;;;;;;9.18;4.80;;;25.40;75.30;;;;;;1881687;73;21131;-73
2023/02/15 02:59:45;;;;;;;13.72;6.08;;;25.40;75.10;;;;;;1883591;73;21133;-74
2023/02/15 03:02:22;;;;;;;8.00;5.20;;;25.50;75.20;;;;;;1888234;73;21567;-74
2023/02/15 03:04:58;;;;;;;10.48;5.40;;;25.50;74.80;;;;;;1884775;76;21072;-74
2023/02/15 03:07:31;;;;;;;8.03;5.42;;;25.50;74.70;;;;;;1893963;73;21805;-74
2023/02/15 03:13:19;;;;;;;12.37;8.83;;;25.50;74.60;;;;;;1862994;75;21346;-73
2023/02/15 03:18:44;;;;;;;9.80;5.30;;;25.60;74.60;;;;;;1857698;75;21674;-73
2023/02/15 03:21:21;;;;;;;9.28;5.28;;;25.60;74.40;;;;;;1857787;75;21451;-74
2023/02/15 03:23:53;;;;;;;11.22;6.28;;;25.60;74.40;;;;;;1863290;76;21132;-73
2023/02/15 03:26:31;;;;;;;7.17;4.97;;;25.60;74.50;;;;;;1872616;76;21663;-73
2023/02/15 03:29:04;;;;;;;8.15;5.25;;;25.70;74.10;;;;;;1865252;76;21780;-74
2023/02/15 03:31:38;;;;;;;7.85;5.05;;;25.70;74.20;;;;;;1873343;75;21176;-73
2023/02/15 03:34:12;;;;;;;12.07;5.60;;;25.70;73.90;;;;;;1868029;76;21459;-74
2023/02/15 03:37:00;;;;;;;8.33;5.28;;;25.80;73.90;;;;;;1871310;75;21480;-74
2023/02/15 03:39:40;;;;;;;8.00;5.17;;;25.70;74.00;;;;;;1876256;76;21207;-74
2023/02/15 03:42:19;;;;;;;8.43;5.08;;;25.70;74.10;;;;;;1857978;76;21851;-72
2023/02/15 03:45:13;;;;;;;9.40;5.12;;;25.80;74.10;;;;;;1881260;75;21131;-73
2023/02/15 03:47:47;;;;;;;7.40;5.35;;;25.80;74.30;;;;;;1860592;74;21193;-74
2023/02/15 03:53:11;;;;;;;8.75;5.62;;;25.90;73.90;;;;;;1866943;76;21657;-74
2023/02/15 03:55:43;;;;;;;6.53;4.53;;;25.90;73.80;;;;;;1885021;75;21127;-74
2023/02/15 04:04:06;;;;;;;10.28;5.20;;;26.20;73.70;;;;;;1871559;76;21140;-73
2023/02/15 04:06:37;;;;;;;8.68;5.78;;;26.30;72.90;;;;;;1887623;75;21495;-73
2023/02/15 04:17:26;;;;;;;7.90;6.25;;;26.70;72.40;;;;;;1949949;72;21270;-72
2023/02/15 04:25:36;;;;;;;6.47;4.12;;;26.80;71.50;;;;;;1916216;74;21174;-73
2023/02/15 04:28:07;;;;;;;9.08;4.92;;;26.80;71.00;;;;;;1954364;72;21840;-73
2023/02/15 04:30:38;;;;;;;7.97;4.80;;;26.80;71.10;;;;;;1937991;74;21569;-74
2023/02/15 04:33:10;;;;;;;8.28;4.92;;;26.80;70.80;;;;;;1937948;74;21117;-73
2023/02/15 04:35:41;;;;;;;6.30;4.62;;;26.80;70.80;;;;;;1979991;72;21367;-73
2023/02/15 04:38:12;;;;;;;13.18;4.75;;;26.90;70.90;;;;;;1975965;72;21172;-76
2023/02/15 04:40:49;;;;;;;5.75;4.40;;;26.90;70.30;;;;;;1911211;73;21127;-75
2023/02/15 04:43:21;;;;;;;7.45;4.55;;;26.90;70.10;;;;;;1914463;73;21131;-73
2023/02/15 04:45:52;;;;;;;7.42;4.55;;;26.90;70.20;;;;;;1893027;75;21181;-74
2023/02/15 04:48:27;;;;;;;8.88;4.85;;;26.80;70.70;;;;;;1886222;76;21132;-73
2023/02/15 04:50:59;;;;;;;6.75;4.95;;;26.90;70.80;;;;;;1893136;76;21915;-73
2023/02/15 04:53:30;;;;;;;6.05;4.20;;;27.00;70.40;;;;;;1865714;76;21144;-73
2023/02/15 04:56:01;;;;;;;7.42;3.83;;;27.00;70.30;;;;;;1950523;72;21114;-72
2023/02/15 04:58:32;;;;;;;6.95;4.33;;;27.10;70.20;;;;;;1955669;71;21273;-73
2023/02/15 05:01:03;;;;;;;9.65;4.08;;;27.20;69.40;;;;;;1971730;71;21122;-72
2023/02/15 05:03:36;;;;;;;8.35;4.80;;;27.20;69.40;;;;;;1925271;73;21122;-74
2023/02/15 05:06:09;;;;;;;7.37;4.47;;;27.30;69.80;;;;;;1924311;74;21147;-74
2023/02/15 05:08:39;;;;;;;5.60;3.90;;;27.40;68.90;;;;;;1975225;71;21841;-73
2023/02/15 05:11:11;;;;;;;8.65;3.87;;;27.40;68.70;;;;;;1915101;74;21590;-72
2023/02/15 05:13:41;;;;;;;7.10;4.50;;;27.40;68.70;;;;;;1906796;74;21167;-74
2023/02/15 05:16:12;;;;;;;6.95;4.17;;;27.40;68.70;;;;;;1894520;74;21185;-74
2023/02/15 05:18:45;;;;;;;6.85;4.03;;;27.30;69.00;;;;;;1898761;75;21115;-74
2023/02/15 05:21:16;;;;;;;6.37;4.37;;;27.30;69.10;;;;;;1931936;73;21111;-73
2023/02/15 05:23:47;;;;;;;6.25;3.87;;;27.20;68.70;;;;;;1917205;73;21154;-73
2023/02/15 05:29:09;;;;;;;5.40;3.85;;;27.10;68.60;;;;;;1874559;75;21651;-73
2023/02/15 05:31:41;;;;;;;6.17;3.85;;;27.10;68.90;;;;;;1900824;74;21143;-74
2023/02/15 05:34:13;;;;;;;6.50;3.47;;;27.00;69.30;;;;;;1941167;73;21131;-73
2023/02/15 05:36:51;;;;;;;13.48;4.50;;;26.90;69.20;;;;;;1945364;71;21232;-72
2023/02/15 05:39:22;;;;;;;22.75;6.47;;;26.80;71.30;;;;;;1920750;73;21123;-75
2023/02/15 05:41:53;;;;;;;12.85;4.92;;;26.70;75.40;;;;;;1929061;73;21586;-74
2023/02/15 05:44:24;;;;;;;10.72;5.05;;;26.50;78.40;;;;;;1903569;73;21096;-79
2023/02/15 05:46:56;;;;;;;11.50;5.17;;;26.40;79.20;;;;;;1891258;73;21579;-74
2023/02/15 05:49:27;;;;;;;7.30;4.45;;;26.20;79.90;;;;;;1902352;74;21274;-73
2023/02/15 05:51:58;;;;;;;8.10;4.72;;;26.10;80.40;;;;;;1873583;74;21102;-73
2023/02/15 05:54:29;;;;;;;8.10;4.40;;;26.00;80.60;;;;;;1912234;73;21579;-73
2023/02/15 05:57:00;;;;;;;7.42;4.40;;;26.00;80.50;;;;;;1889552;75;21545;-74
2023/02/15 05:59:31;;;;;;;7.85;4.72;;;26.00;79.80;;;;;;1931419;73;21119;-75
2023/02/15 06:02:03;;;;;;;7.45;5.33;;;26.00;80.00;;;;;;1879505;75;21842;-76
2023/02/15 06:04:34;;;;;;;6.67;4.83;;;25.90;79.90;;;;;;1910571;74;21126;-75
2023/02/15 06:07:05;;;;;;;6.15;4.92;;;26.00;78.60;;;;;;1906583;74;21181;-75
2023/02/15 06:09:43;;;;;;;12.25;6.60;;;26.00;78.30;;;;;;1882857;75;21416;-76
2023/02/15 06:12:12;;;;;;;7.30;4.87;;;26.00;78.90;;;;;;1854672;76;21508;-75
2023/02/15 06:14:43;;;;;;;8.20;5.22;;;26.00;78.20;;;;;;1935091;73;21131;-72
2023/02/15 06:17:17;;;;;;;8.05;4.67;;;26.00;78.40;;;;;;1911114;72;21728;-75
2023/02/15 06:19:54;;;;;;;7.12;5.10;;;26.00;77.30;;;;;;1902893;73;21118;-73
2023/02/15 06:22:25;;;;;;;8.68;5.08;;;26.00;78.00;;;;;;1923222;73;21123;-74
2023/02/15 06:24:57;;;;;;;6.25;4.65;;;26.10;77.40;;;;;;1869329;74;21887;-73
2023/02/15 06:27:28;;;;;;;10.18;4.97;;;26.00;76.60;;;;;;1913140;73;21251;-73
2023/02/15 06:30:01;;;;;;;8.03;5.12;;;26.00;76.50;;;;;;1915954;72;21131;-75
2023/02/15 06:32:35;;;;;;;7.47;5.42;;;26.00;76.40;;;;;;1917060;73;21176;-74
2023/02/15 06:35:09;;;;;;;7.22;5.05;;;26.10;76.80;;;;;;1892884;74;21190;-72
2023/02/15 06:37:46;;;;;;;9.18;4.67;;;26.10;76.30;;;;;;1908305;73;21205;-75
2023/02/15 06:40:14;;;;;;;10.23;5.25;;;26.10;77.30;;;;;;1915898;73;22024;-73
2023/02/15 06:42:46;;;;;;;9.78;5.33;;;26.20;75.80;;;;;;1914746;73;21630;-73
2023/02/15 06:45:18;;;;;;;9.35;5.45;;;26.20;75.80;;;;;;1866969;74;21127;-73
2023/02/15 06:47:50;;;;;;;8.45;5.03;;;26.30;75.30;;;;;;1895917;73;21177;-73
2023/02/15 06:50:21;;;;;;;8.03;5.22;;;26.30;74.70;;;;;;1921378;74;21193;-73
2023/02/15 06:53:00;;;;;;;9.60;5.15;;;26.40;75.30;;;;;;1917335;73;21088;-72
2023/02/15 06:55:31;;;;;;;9.95;6.28;;;26.50;74.90;;;;;;1893905;73;21648;-72
2023/02/15 06:58:02;;;;;;;9.88;5.28;;;26.60;74.40;;;;;;1909927;74;21115;-73
2023/02/15 07:00:35;;;;;;;8.73;4.53;;;26.70;74.60;;;;;;1913614;73;21575;-72
2023/02/15 07:03:06;;;;;;;7.08;4.87;;;26.80;74.40;;;;;;1867417;74;21867;-72
2023/02/15 07:05:37;;;;;;;8.00;5.08;;;26.80;73.60;;;;;;1888547;74;21185;-72
2023/02/15 07:08:10;;;;;;;6.67;4.40;;;27.00;73.70;;;;;;1911410;73;21127;-74
2023/02/15 07:10:42;;;;;;;9.38;5.17;;;27.10;73.00;;;;;;1889625;74;21661;-73
2023/02/15 07:13:13;;;;;;;7.97;5.15;;;27.30;72.70;;;;;;1873804;74;21167;-73
2023/02/15 07:15:45;;;;;;;6.35;4.60;;;27.50;72.00;;;;;;1988803;71;21599;-73
2023/02/15 07:18:16;;;;;;;5.95;4.22;;;27.70;71.50;;;;;;1898913;74;21116;-72
2023/02/15 07:20:49;;;;;;;8.28;4.95;;;27.80;70.60;;;;;;1882965;74;21131;-74
2023/02/15 07:23:20;;;;;;;6.60;4.70;;;28.00;70.50;;;;;;1887300;74;21139;-74
2023/02/15 07:25:59;;;;;;;7.05;4.78;;;28.00;70.00;;;;;;1876035;76;21132;-75
2023/02/15 07:28:31;;;;;;;10.25;4.83;;;28.10;70.00;;;;;;1880629;74;21103;-74
2023/02/15 07:31:07;;;;;;;6.60;4.67;;;28.10;69.50;;;;;;1964662;71;21876;-74
2023/02/15 07:33:38;;;;;;;6.42;4.53;;;28.10;69.20;;;;;;1915388;73;21232;-73
2023/02/15 07:36:11;;;;;;;7.35;4.37;;;28.20;69.30;;;;;;1915878;73;21193;-74
2023/02/15 07:38:44;;;;;;;7.95;4.03;;;28.20;69.00;;;;;;1955030;71;21929;-74
2023/02/15 07:41:16;;;;;;;10.72;4.60;;;28.20;69.00;;;;;;1931908;74;21208;-73
2023/02/15 07:43:47;;;;;;;9.70;4.35;;;28.20;69.40;;;;;;1951251;71;21187;-74
2023/02/15 07:46:20;;;;;;;9.23;4.70;;;28.20;69.70;;;;;;1903605;73;21127;-74
2023/02/15 07:48:52;;;;;;;7.47;4.37;;;28.30;70.00;;;;;;1962611;71;21594;-73
2023/02/15 07:51:23;;;;;;;9.68;4.45;;;28.40;69.60;;;;;;1884648;74;21196;-73
2023/02/15 07:53:58;;;;;;;7.87;4.62;;;28.40;68.80;;;;;;1920821;74;21086;-74
2023/02/15 07:56:32;;;;;;;6.58;4.78;;;28.50;69.00;;;;;;1930738;74;21539;-75
2023/02/15 07:59:04;;;;;;;8.28;4.87;;;28.60;69.40;;;;;;1919075;73;21568;-75
2023/02/15 08:04:27;;;;;;;6.97;4.45;;;28.70;69.40;;;;;;1891610;75;21518;-77
2023/02/15 08:07:12;;;;;;;8.90;4.40;;;28.70;68.10;;;;;;1876483;75;21486;-77
2023/02/15 08:09:31;;;;;;;6.62;4.60;;;28.70;68.60;;;;;;1861070;75;21110;-74
2023/02/15 08:12:02;;;;;;;8.45;4.30;;;28.70;68.60;;;;;;1860479;75;21140;-73
2023/02/15 08:14:34;;;;;;;8.53;4.50;;;28.60;68.90;;;;;;1867379;75;21097;-72
2023/02/15 08:17:44;;;;;;;6.10;3.98;;;28.60;69.10;;;;;;1845425;78;21042;-72
2023/02/15 08:20:18;;;;;;;10.95;4.67;;;28.70;69.00;;;;;;1878395;75;21728;-73
2023/02/15 08:22:49;;;;;;;9.40;4.40;;;28.70;68.90;;;;;;1908221;75;21629;-73
2023/02/15 08:25:24;;;;;;;5.15;3.70;;;28.70;69.10;;;;;;1898392;74;21603;-72
2023/02/15 08:27:56;;;;;;;7.70;4.40;;;28.70;68.50;;;;;;1899754;73;21264;-74
2023/02/15 08:30:27;;;;;;;7.92;4.12;;;28.70;69.00;;;;;;1899484;74;21233;-76
2023/02/15 08:33:22;;;;;;;8.20;4.12;;;28.60;69.20;;;;;;1916382;74;21150;-76
2023/02/15 08:36:09;;;;;;;9.48;4.45;;;28.60;69.40;;;;;;1848372;76;21687;-73
2023/02/15 08:38:41;;;;;;;6.00;4.05;;;28.60;69.40;;;;;;1843415;76;21485;-74
2023/02/15 08:41:21;;;;;;;6.87;4.35;;;28.60;70.00;;;;;;1851816;76;21146;-76
2023/02/15 08:43:54;;;;;;;6.03;4.42;;;28.50;69.90;;;;;;1843728;76;21193;-73
2023/02/15 08:46:28;;;;;;;6.17;3.62;;;28.50;70.00;;;;;;1842467;76;21136;-73
2023/02/15 08:49:00;;;;;;;6.45;3.60;;;28.50;70.40;;;;;;1841371;77;21153;-74
2023/02/15 08:51:33;;;;;;;6.28;3.90;;;28.50;70.20;;;;;;1848909;77;21221;-73
2023/02/15 08:54:28;;;;;;;7.42;3.75;;;28.50;69.70;;;;;;1850029;77;21189;-76
2023/02/15 08:57:01;;;;;;;7.70;4.15;;;28.50;70.00;;;;;;1851601;76;21198;-73
2023/02/15 08:59:29;;;;;;;7.30;3.95;;;28.50;69.80;;;;;;1848913;76;21511;-75
2023/02/15 09:02:02;;;;;;;9.53;4.72;;;28.60;69.70;;;;;;1843024;76;21119;-73
2023/02/15 09:04:33;;;;;;;7.35;3.98;;;28.60;69.60;;;;;;1848435;76;21185;-73
2023/02/15 09:07:05;;;;;;;9.75;4.75;;;28.60;69.50;;;;;;1844647;76;21812;-74
2023/02/15 09:09:36;;;;;;;9.93;4.22;;;28.60;69.30;;;;;;1849502;76;21204;-76
2023/02/15 09:12:08;;;;;;;9.53;3.83;;;28.60;69.40;;;;;;1801672;77;21209;-75
2023/02/15 09:14:39;;;;;;;6.10;3.50;;;28.60;69.60;;;;;;1771423;79;21222;-75
2023/02/15 09:17:10;;;;;;;7.42;3.60;;;28.70;69.20;;;;;;1810014;78;21179;-73
2023/02/15 09:19:43;;;;;;;4.90;2.98;;;28.70;68.10;;;;;;1843877;76;21641;-73
2023/02/15 09:22:14;;;;;;;8.75;3.45;;;28.70;67.70;;;;;;1847732;76;21164;-75
2023/02/15 09:24:46;;;;;;;7.15;3.77;;;28.70;67.30;;;;;;1845019;76;21233;-75
2023/02/15 09:27:18;;;;;;;6.15;4.72;;;28.70;67.40;;;;;;1849352;76;21379;-75
2023/02/15 09:29:53;;;;;;;6.03;3.40;;;28.60;67.40;;;;;;1847519;76;21648;-74
2023/02/15 09:32:27;;;;;;;6.42;2.90;;;28.60;66.70;;;;;;1850864;76;21149;-74
2023/02/15 09:34:57;;;;;;;5.58;3.08;;;28.60;66.30;;;;;;1845388;76;21220;-74
2023/02/15 09:37:28;;;;;;;5.10;3.05;;;28.50;66.50;;;;;;1849363;76;21544;-73
2023/02/15 09:40:00;;;;;;;9.00;3.05;;;28.50;66.70;;;;;;1842201;76;21514;-73
2023/02/15 09:42:42;;;;;;;5.67;3.05;;;28.50;66.80;;;;;;1849528;76;21131;-74
2023/02/15 09:45:33;;;;;;;7.37;3.42;;;28.40;66.80;;;;;;1831851;76;21186;-74
2023/02/15 09:48:24;;;;;;;6.58;3.52;;;28.40;67.00;;;;;;1843516;76;21176;-73
2023/02/15 09:51:26;;;;;;;9.73;3.92;;;28.50;67.00;;;;;;1861563;76;21158;-74
2023/02/15 09:54:17;;;;;;;12.78;3.72;;;28.50;67.20;;;;;;1850847;76;21534;-73
2023/02/15 09:56:51;;;;;;;6.45;3.60;;;28.50;67.60;;;;;;1847479;76;21892;-74
2023/02/15 09:59:30;;;;;;;6.28;3.80;;;28.40;68.10;;;;;;1853886;76;21566;-75
2023/02/15 10:02:16;;;;;;;7.00;3.42;;;28.40;68.50;;;;;;1849769;76;21209;-85
2023/02/15 10:05:05;;;;;;;7.05;3.90;;;28.40;68.70;;;;;;1851999;76;21260;-87
2023/02/15 10:07:55;;;;;;;8.68;4.53;;;28.30;68.90;;;;;;1861804;76;21284;-88
2023/02/15 10:10:31;;;;;;;7.20;3.87;;;28.30;69.10;;;;;;1852374;77;21635;-88
2023/02/15 10:13:26;;;;;;;8.63;4.17;;;28.30;68.90;;;;;;1845559;76;21200;-87
2023/02/15 10:16:11;;;;;;;5.42;3.02;;;28.30;68.70;;;;;;1856223;76;21130;-85
2023/02/15 10:18:44;;;;;;;8.33;3.37;;;28.30;68.40;;;;;;1830759;76;21181;-86
2023/02/15 10:21:30;;;;;;;10.80;3.47;;;28.20;68.50;;;;;;1862604;76;21653;-86
2023/02/15 10:24:12;;;;;;;6.17;3.42;;;28.20;68.80;;;;;;1851766;76;21134;-87
2023/02/15 10:26:56;;;;;;;7.10;3.95;;;28.20;70.10;;;;;;1855940;77;21154;-86
2023/02/15 10:30:07;;;;;;;8.23;4.20;;;28.20;69.50;;;;;;1826614;77;21099;-88
2023/02/15 10:32:54;;;;;;;8.75;3.80;;;28.20;69.80;;;;;;1871364;76;21095;-87
2023/02/15 10:35:32;;;;;;;7.87;4.20;;;28.10;69.90;;;;;;1834540;76;21092;-88
2023/02/15 10:38:15;;;;;;;8.73;4.20;;;28.10;70.20;;;;;;1822388;78;21281;-88
2023/02/15 10:40:50;;;;;;;6.65;4.33;;;28.10;70.30;;;;;;1816185;78;21161;-88
2023/02/15 10:43:25;;;;;;;8.23;4.33;;;28.00;70.40;;;;;;1819213;78;21096;-88
2023/02/15 10:46:18;;;;;;;8.63;4.60;;;28.00;70.50;;;;;;1825959;78;21108;-88
2023/02/15 10:49:12;;;;;;;6.75;4.03;;;28.00;70.60;;;;;;1827530;78;21154;-86
2023/02/15 10:52:04;;;;;;;9.30;4.25;;;28.00;70.60;;;;;;1768539;79;21161;-88
2023/02/15 10:55:14;;;;;;;9.23;4.58;;;28.00;70.70;;;;;;1746610;80;21242;-87
2023/02/15 10:57:58;;;;;;;12.33;4.37;;;28.00;70.90;;;;;;1829880;78;21553;-87
2023/02/15 11:00:59;;;;;;;7.42;4.25;;;27.90;70.70;;;;;;1829428;78;21110;-89
2023/02/15 11:03:48;;;;;;;12.55;4.72;;;27.90;71.00;;;;;;1739656;80;21190;-87
2023/02/15 11:06:25;;;;;;;14.65;8.48;;;27.90;71.00;;;;;;1801500;78;21154;-88
2023/02/15 11:09:06;;;;;;;9.53;6.15;;;27.90;71.30;;;;;;1822032;78;21150;-86
2023/02/15 11:11:46;;;;;;;11.97;6.90;;;27.90;71.20;;;;;;1756545;80;21244;-87
2023/02/15 11:14:23;;;;;;;15.15;8.80;;;27.90;71.50;;;;;;1821110;78;21264;-86
2023/02/15 11:16:57;;;;;;;11.50;6.83;;;27.90;71.60;;;;;;1782796;79;21148;-86
2023/02/15 11:19:31;;;;;;;9.13;6.37;;;27.80;71.60;;;;;;1835078;78;21111;-89
2023/02/15 11:22:09;;;;;;;14.47;5.87;;;27.80;71.60;;;;;;1830331;78;21149;-88
2023/02/15 11:24:42;;;;;;;13.23;6.30;;;27.80;71.70;;;;;;1784570;80;21208;-87
2023/02/15 11:27:23;;;;;;;14.43;6.65;;;27.80;72.00;;;;;;1828359;78;21309;-86
2023/02/15 11:30:09;;;;;;;12.37;7.30;;;27.80;72.10;;;;;;1796704;78;21157;-88
2023/02/15 11:32:43;;;;;;;13.65;8.83;;;27.70;71.90;;;;;;1788555;80;21150;-86
2023/02/15 11:35:16;;;;;;;14.05;8.15;;;27.70;72.00;;;;;;1796203;78;21202;-87
2023/02/15 11:38:01;;;;;;;12.55;7.00;;;27.70;72.00;;;;;;1762705;80;21112;-87
2023/02/15 11:40:38;;;;;;;9.78;7.42;;;27.70;72.10;;;;;;1758420;80;21166;-87
2023/02/15 11:43:35;;;;;;;10.78;8.13;;;27.70;72.20;;;;;;1754139;80;21160;-87
2023/02/15 11:46:08;;;;;;;13.40;8.05;;;27.70;72.30;;;;;;1754952;80;21189;-88
2023/02/15 11:48:42;;;;;;;11.08;7.92;;;27.70;72.50;;;;;;1754489;80;21228;-85
2023/02/15 11:51:15;;;;;;;14.78;7.50;;;27.60;72.50;;;;;;1753196;80;21229;-86
2023/02/15 11:53:47;;;;;;;12.65;7.35;;;27.60;72.60;;;;;;1754025;80;21163;-87
2023/02/15 11:56:21;;;;;;;14.07;8.03;;;27.60;72.60;;;;;;1749200;80;21881;-87
2023/02/15 11:59:00;;;;;;;32.10;14.33;;;27.60;72.70;;;;;;1749642;82;21230;-86
2023/02/15 12:01:33;;;;;;;17.35;9.30;;;27.60;72.80;;;;;;1786814;80;21103;-86
2023/02/15 12:04:07;;;;;;;11.40;7.05;;;27.60;72.90;;;;;;1779962;79;21389;-87
2023/02/15 12:06:49;;;;;;;11.70;7.45;;;27.60;73.00;;;;;;1755144;82;21217;-87
2023/02/15 12:09:28;;;;;;;16.07;7.60;;;27.60;73.00;;;;;;1788083;79;21221;-84
2023/02/15 12:12:26;;;;;;;13.03;8.08;;;27.50;73.10;;;;;;1731724;83;21118;-86
2023/02/15 12:14:56;;;;;;;17.17;9.18;;;27.50;73.10;;;;;;1724388;80;21264;-84
2023/02/15 12:17:30;;;;;;;14.38;8.08;;;27.50;73.00;;;;;;1774749;80;21161;-87
2023/02/15 12:20:04;;;;;;;18.35;9.08;;;27.60;72.70;;;;;;1778190;79;21617;-86
2023/02/15 12:22:45;;;;;;;19.67;9.35;;;27.60;72.40;;;;;;1749003;80;21229;-87
2023/02/15 12:25:23;;;;;;;23.85;10.35;;;27.60;72.20;;;;;;1748773;81;21111;-84
2023/02/15 12:27:58;;;;;;;20.10;11.78;;;27.50;73.10;;;;;;1784819;80;21165;-84
2023/02/15 12:30:38;;;;;;;18.87;12.15;;;27.50;72.00;;;;;;1779670;80;21102;-86
2023/02/15 12:33:29;;;;;;;20.45;13.05;;;27.50;72.00;;;;;;1781578;80;21146;-87
2023/02/15 12:36:14;;;;;;;26.30;12.43;;;27.50;71.90;;;;;;1789273;79;21649;-87
2023/02/15 12:39:03;;;;;;;28.12;13.75;;;27.50;71.90;;;;;;1804071;79;21510;-85
2023/02/15 12:41:34;;;;;;;24.67;13.18;;;27.50;71.90;;;;;;1800698;78;21154;-85
2023/02/15 12:44:20;;;;;;;23.85;12.95;;;27.50;71.90;;;;;;1771923;79;21170;-86
2023/02/15 12:46:58;;;;;;;;;;;27.40;71.90;;;;;;1799790;78;21122;-85
2023/02/15 12:49:31;;;;;;;18.65;11.10;;;27.40;71.90;;;;;;1824999;78;20271;-85
2023/02/15 12:52:08;;;;;;;20.35;10.70;;;27.40;71.80;;;;;;1801606;79;21310;-85
2023/02/15 12:54:43;;;;;;;19.35;11.97;;;27.40;71.90;;;;;;1804439;78;21153;-87
2023/02/15 12:57:25;;;;;;;24.63;11.78;;;27.30;72.90;;;;;;1746595;82;21429;-86
2023/02/15 13:00:07;;;;;;;23.02;11.40;;;27.30;72.10;;;;;;1752093;79;21165;-86
2023/02/15 13:02:41;;;;;;;24.65;11.35;;;27.30;72.20;;;;;;1818609;78;21142;-87
2023/02/15 13:08:45;;;;;;;15.68;10.48;;;27.30;72.30;;;;;;1798494;78;21353;-86
2023/02/15 13:11:23;;;;;;;19.20;11.05;;;27.30;72.50;;;;;;1793860;79;21696;-87
2023/02/15 13:14:13;;;;;;;20.52;11.55;;;27.20;72.60;;;;;;1805231;79;21403;-87
2023/02/15 13:16:48;;;;;;;17.92;11.08;;;27.20;73.10;;;;;;1790613;79;21107;-86
2023/02/15 13:19:42;;;;;;;22.07;11.40;;;27.20;73.70;;;;;;1807215;79;21173;-86
2023/02/15 13:22:15;;;;;;;20.48;11.80;;;27.20;74.00;;;;;;1808541;79;21095;-87
2023/02/15 13:25:00;;;;;;;24.63;12.50;;;27.10;74.30;;;;;;1777658;80;21124;-86
2023/02/15 13:27:47;;;;;;;20.90;13.15;;;27.10;74.90;;;;;;1808157;79;21181;-86
2023/02/15 13:30:50;;;;;;;24.50;13.48;;;27.10;75.00;;;;;;1776072;81;21106;-86
2023/02/15 13:33:30;;;;;;;25.55;14.23;;;27.00;75.00;;;;;;1807629;78;21166;-87
2023/02/15 13:36:12;;;;;;;20.85;11.05;;;27.00;74.30;;;;;;1770689;79;21656;-87
2023/02/15 13:38:58;;;;;;;15.95;10.85;;;26.90;73.20;;;;;;1806006;78;21217;-87
2023/02/15 13:41:46;;;;;;;16.17;9.83;;;26.90;72.80;;;;;;1812687;78;21130;-88
2023/02/15 13:44:31;;;;;;;21.48;9.60;;;26.90;72.50;;;;;;1835149;77;21465;-86
2023/02/15 13:47:17;;;;;;;17.90;10.15;;;26.90;72.50;;;;;;1816437;79;21180;-87
2023/02/15 13:50:19;;;;;;;13.62;8.95;;;26.90;72.60;;;;;;1754686;80;21146;-88
2023/02/15 13:53:11;;;;;;;18.20;9.40;;;26.90;72.60;;;;;;1765669;80;21166;-88
2023/02/15 13:55:59;;;;;;;16.00;9.25;;;26.80;72.70;;;;;;1772731;80;21068;-88
2023/02/15 13:58:49;;;;;;;16.02;9.33;;;26.80;72.70;;;;;;1821891;77;21127;-86
2023/02/15 14:01:48;;;;;;;14.98;8.83;;;26.80;72.60;;;;;;1818203;77;21174;-86
2023/02/15 14:04:38;;;;;;;15.05;9.20;;;26.70;72.60;;;;;;1819936;78;21100;-86
2023/02/15 14:07:26;;;;;;;18.67;9.13;;;26.70;72.60;;;;;;1804757;78;21248;-87
2023/02/15 14:10:08;;;;;;;16.97;9.20;;;26.70;72.30;;;;;;1818642;78;21158;-85